createdAt,value
2019-05-03T00:00:56.778Z,30.40
2019-05-03T00:03:52.719Z,26.97
2019-05-03T00:06:42.655Z,28.50
2019-05-03T00:09:44.637Z,32.60
2019-05-03T00:13:24.301Z,31.50
2019-05-03T00:16:32.464Z,32.00
2019-05-03T00:19:52.767Z,31.80
2019-05-03T00:22:41.578Z,28.67
2019-05-03T00:25:34.079Z,31.53
2019-05-03T00:28:57.160Z,32.20
2019-05-03T00:31:57.352Z,29.60
2019-05-03T00:34:54.510Z,29.53
2019-05-03T00:37:47.669Z,28.93
2019-05-03T00:40:41.936Z,32.83
2019-05-03T00:43:32.402Z,30.50
2019-05-03T00:46:23.413Z,29.47
2019-05-03T00:49:25.749Z,30.80
2019-05-03T00:52:28.233Z,27.87
2019-05-03T00:55:25.086Z,30.23
2019-05-03T00:58:16.130Z,29.70
2019-05-03T01:01:27.584Z,30.50
2019-05-03T01:04:31.723Z,30.63
2019-05-03T01:07:42.297Z,31.20
2019-05-03T01:10:37.346Z,27.33
2019-05-03T01:13:37.946Z,27.93
2019-05-03T01:16:27.475Z,29.07
2019-05-03T01:19:31.983Z,28.77
2019-05-03T01:22:25.577Z,28.13
2019-05-03T01:25:32.041Z,28.60
2019-05-03T01:28:12.455Z,28.57
2019-05-03T01:31:12.751Z,29.13
2019-05-03T01:34:24.403Z,30.47
2019-05-03T01:37:12.908Z,30.23
2019-05-03T01:40:06.611Z,32.03
2019-05-03T01:42:58.779Z,31.33
2019-05-03T01:45:55.763Z,30.57
2019-05-03T01:49:19.055Z,31.37
2019-05-03T01:52:27.377Z,28.73
2019-05-03T01:55:55.722Z,32.23
2019-05-03T01:59:18.276Z,28.67
2019-05-03T02:02:41.989Z,32.63
2019-05-03T02:05:52.028Z,31.03
2019-05-03T02:08:48.171Z,32.33
2019-05-03T02:11:33.613Z,30.03
2019-05-03T02:14:33.742Z,33.47
2019-05-03T02:17:27.932Z,35.63
2019-05-03T02:20:19.401Z,34.63
2019-05-03T02:23:11.992Z,31.37
2019-05-03T02:26:03.264Z,31.93
2019-05-03T02:28:58.606Z,30.93
2019-05-03T02:31:56.926Z,33.87
2019-05-03T02:35:03.680Z,33.73
2019-05-03T02:37:53.906Z,37.30
2019-05-03T02:40:43.664Z,33.60
2019-05-03T02:44:06.449Z,31.80
2019-05-03T02:47:35.557Z,31.87
2019-05-03T02:50:36.244Z,31.90
2019-05-03T02:53:29.479Z,35.80
2019-05-03T02:56:37.212Z,32.73
2019-05-03T02:59:34.569Z,34.47
2019-05-03T03:02:28.508Z,33.67
2019-05-03T03:08:36.687Z,33.07
2019-05-03T03:11:56.027Z,38.97
2019-05-03T03:15:07.198Z,34.17
2019-05-03T03:17:59.699Z,34.33
2019-05-03T03:20:50.075Z,31.90
2019-05-03T03:24:02.567Z,33.27
2019-05-03T03:31:38.012Z,31.60
2019-05-03T03:34:28.506Z,33.30
2019-05-03T03:37:22.551Z,29.37
2019-05-03T03:40:16.930Z,32.17
2019-05-03T03:43:08.303Z,31.80
2019-05-03T03:46:00.942Z,33.30
2019-05-03T03:48:55.919Z,37.70
2019-05-03T03:55:15.852Z,35.23
2019-05-03T03:58:08.980Z,30.40
2019-05-03T04:01:26.698Z,32.90
2019-05-03T04:04:19.250Z,36.87
2019-05-03T04:07:15.759Z,35.30
2019-05-03T04:10:09.022Z,33.97
2019-05-03T04:13:05.476Z,34.70
2019-05-03T04:16:20.262Z,35.57
2019-05-03T04:19:11.829Z,36.73
2019-05-03T04:22:26.842Z,38.63
2019-05-03T04:25:27.710Z,39.30
2019-05-03T04:28:16.241Z,34.20
2019-05-03T04:31:10.034Z,36.30
2019-05-03T04:34:18.334Z,38.20
2019-05-03T04:37:41.720Z,37.90
2019-05-03T04:40:35.951Z,40.97
2019-05-03T04:46:58.281Z,44.87
2019-05-03T04:49:50.607Z,46.70
2019-05-03T04:52:49.976Z,47.23
2019-05-03T04:55:46.844Z,46.23
2019-05-03T04:58:36.491Z,46.53
2019-05-03T05:01:29.453Z,41.53
2019-05-03T05:04:25.417Z,46.73
2019-05-03T05:07:15.276Z,48.53
2019-05-03T05:10:02.141Z,49.57
2019-05-03T05:12:56.412Z,48.73
2019-05-03T05:15:45.975Z,51.57
2019-05-03T05:18:41.640Z,50.10
2019-05-03T05:21:41.447Z,50.33
2019-05-03T05:24:29.314Z,51.10
2019-05-03T05:27:25.664Z,49.03
2019-05-03T05:33:44.576Z,47.33
2019-05-03T05:36:34.769Z,50.53
2019-05-03T05:39:28.822Z,44.47
2019-05-03T05:42:17.249Z,42.60
2019-05-03T05:45:15.266Z,46.20
2019-05-03T05:48:37.468Z,46.00
2019-05-03T05:55:29.221Z,44.60
2019-05-03T05:58:34.837Z,42.13
2019-05-03T06:01:50.666Z,40.20
2019-05-03T06:04:38.452Z,45.10
2019-05-03T06:08:15.080Z,35.03
2019-05-03T06:14:17.676Z,38.60
2019-05-03T06:17:27.509Z,34.20
2019-05-03T06:23:45.110Z,31.47
2019-05-03T06:27:08.315Z,29.40
2019-05-03T06:30:32.768Z,31.07
2019-05-03T06:34:14.919Z,27.93
2019-05-03T06:36:51.524Z,27.17
2019-05-03T06:39:45.583Z,29.77
2019-05-03T06:42:52.449Z,31.10
2019-05-03T06:45:55.943Z,29.20
2019-05-03T06:48:44.581Z,27.70
2019-05-03T06:51:49.322Z,28.37
2019-05-03T06:54:55.432Z,32.07
2019-05-03T06:58:00.168Z,35.33
2019-05-03T07:00:57.842Z,37.30
2019-05-03T07:04:34.763Z,27.17
2019-05-03T07:07:35.420Z,27.77
2019-05-03T07:10:36.151Z,32.93
2019-05-03T07:13:39.263Z,28.43
2019-05-03T07:16:17.603Z,27.00
2019-05-03T07:19:14.603Z,28.73
2019-05-03T07:25:44.803Z,25.50
2019-05-03T07:28:46.240Z,24.83
2019-05-03T07:31:29.332Z,25.63
2019-05-03T07:34:45.269Z,25.77
2019-05-03T07:37:41.098Z,22.30
2019-05-03T07:40:28.498Z,23.20
2019-05-03T07:43:18.635Z,20.47
2019-05-03T07:46:07.636Z,16.87
2019-05-03T07:48:55.601Z,14.10
2019-05-03T07:51:47.227Z,18.53
2019-05-03T07:54:35.795Z,15.60
2019-05-03T07:57:45.265Z,12.93
2019-05-03T08:00:34.382Z,13.37
2019-05-03T08:03:26.232Z,14.13
2019-05-03T08:06:14.959Z,13.57
2019-05-03T08:09:04.941Z,11.47
2019-05-03T08:12:09.665Z,12.63
2019-05-03T08:15:05.371Z,12.97
2019-05-03T08:17:53.093Z,12.90
2019-05-03T08:20:41.153Z,12.10
2019-05-03T08:23:35.738Z,11.57
2019-05-03T08:26:25.083Z,14.43
2019-05-03T08:29:35.205Z,14.40
2019-05-03T08:32:56.980Z,14.17
2019-05-03T08:35:47.866Z,14.10
2019-05-03T08:38:36.479Z,12.83
2019-05-03T08:42:05.453Z,12.90
2019-05-03T08:52:25.295Z,15.63
2019-05-03T08:55:15.857Z,13.67
2019-05-03T08:58:05.253Z,18.07
2019-05-03T09:00:54.716Z,14.67
2019-05-03T09:04:00.343Z,16.73
2019-05-03T09:06:56.431Z,14.03
2019-05-03T09:10:02.884Z,13.17
2019-05-03T09:13:08.315Z,15.00
2019-05-03T09:15:57.006Z,15.30
2019-05-03T09:18:45.480Z,12.77
2019-05-03T09:24:43.041Z,13.60
2019-05-03T09:27:34.400Z,12.40
2019-05-03T09:30:24.982Z,12.30
2019-05-03T09:33:35.525Z,11.60
2019-05-03T09:36:34.537Z,11.07
2019-05-03T09:39:31.599Z,12.37
2019-05-03T09:42:35.259Z,11.67
2019-05-03T09:45:29.436Z,11.90
2019-05-03T09:48:17.256Z,11.87
2019-05-03T09:51:05.520Z,11.30
2019-05-03T09:53:58.212Z,11.03
2019-05-03T09:59:59.973Z,11.10
2019-05-03T10:02:51.918Z,10.80
2019-05-03T10:05:39.810Z,11.23
2019-05-03T10:08:27.448Z,10.73
2019-05-03T10:11:28.937Z,12.60
2019-05-03T10:14:17.091Z,10.90
2019-05-03T10:17:55.297Z,11.17
2019-05-03T10:20:44.507Z,11.80
2019-05-03T10:23:39.289Z,12.40
2019-05-03T10:26:27.495Z,11.17
2019-05-03T10:29:35.404Z,11.17
2019-05-03T10:32:44.988Z,11.30
2019-05-03T10:35:35.137Z,13.00
2019-05-03T10:38:24.650Z,11.63
2019-05-03T10:41:12.960Z,12.87
2019-05-03T10:44:02.367Z,12.13
2019-05-03T10:46:50.574Z,13.10
2019-05-03T10:49:42.384Z,13.73
2019-05-03T10:52:44.665Z,12.00
2019-05-03T11:02:48.100Z,12.70
2019-05-03T11:05:45.341Z,12.83
2019-05-03T11:08:32.789Z,11.67
2019-05-03T11:11:21.492Z,13.90
2019-05-03T11:14:09.958Z,13.90
2019-05-03T11:17:00.473Z,12.60
2019-05-03T11:19:47.483Z,11.77
2019-05-03T11:22:41.327Z,10.83
2019-05-03T11:25:30.668Z,9.63
2019-05-03T11:28:24.930Z,14.47
2019-05-03T11:31:30.253Z,10.73
2019-05-03T11:34:22.758Z,10.90
2019-05-03T11:37:48.437Z,11.97
2019-05-03T11:40:36.723Z,10.43
2019-05-03T11:43:24.923Z,10.40
2019-05-03T11:46:12.546Z,12.23
2019-05-03T11:49:00.828Z,10.17
2019-05-03T11:51:49.090Z,9.87
2019-05-03T11:54:37.146Z,10.63
2019-05-03T11:57:27.072Z,10.07
2019-05-03T12:00:19.803Z,10.87
2019-05-03T12:03:39.165Z,11.23
2019-05-03T12:06:05.899Z,9.33
2019-05-03T12:08:55.371Z,10.47
2019-05-03T12:11:43.572Z,10.10
2019-05-03T12:14:31.241Z,8.70
2019-05-03T12:17:29.763Z,9.17
2019-05-03T12:20:19.316Z,9.73
2019-05-03T12:23:07.482Z,9.17
2019-05-03T12:25:56.902Z,8.80
2019-05-03T12:28:45.067Z,9.70
2019-05-03T12:31:40.623Z,9.20
2019-05-03T12:34:27.829Z,9.60
2019-05-03T12:37:17.455Z,11.13
2019-05-03T12:40:05.720Z,10.03
2019-05-03T12:42:55.240Z,10.07
2019-05-03T12:45:45.933Z,9.40
2019-05-03T12:48:35.508Z,9.87
2019-05-03T12:51:25.526Z,9.97
2019-05-03T12:54:19.374Z,9.10
2019-05-03T12:57:15.483Z,10.60
2019-05-03T13:00:20.858Z,9.70
2019-05-03T13:03:12.679Z,9.50
2019-05-03T13:06:00.326Z,8.53
2019-05-03T13:08:48.393Z,9.03
2019-05-03T13:11:51.568Z,8.30
2019-05-03T13:14:27.960Z,10.17
2019-05-03T13:17:19.073Z,7.97
2019-05-03T13:20:13.156Z,8.97
2019-05-03T13:23:00.984Z,8.10
2019-05-03T13:25:48.980Z,8.57
2019-05-03T13:28:36.691Z,7.50
2019-05-03T13:31:25.673Z,7.13
2019-05-03T13:34:15.582Z,7.60
2019-05-03T13:37:05.271Z,7.20
2019-05-03T13:39:55.418Z,7.37
2019-05-03T13:42:56.049Z,7.50
2019-05-03T13:45:32.549Z,7.33
2019-05-03T13:48:23.566Z,8.00
2019-05-03T13:51:28.185Z,8.20
2019-05-03T13:54:57.246Z,8.47
2019-05-03T14:02:15.024Z,7.77
2019-05-03T14:04:56.544Z,7.53
2019-05-03T14:08:34.852Z,7.60
2019-05-03T14:14:56.437Z,8.93
2019-05-03T14:17:44.336Z,8.83
2019-05-03T14:20:55.097Z,8.63
2019-05-03T14:24:00.417Z,7.97
2019-05-03T14:26:54.999Z,8.30
2019-05-03T14:29:38.277Z,8.20
2019-05-03T14:32:35.913Z,7.97
2019-05-03T14:35:37.501Z,7.80
2019-05-03T14:38:25.532Z,7.20
2019-05-03T14:41:15.098Z,7.63
2019-05-03T14:44:04.998Z,8.30
2019-05-03T14:46:58.764Z,9.50
2019-05-03T14:49:43.081Z,7.37
2019-05-03T14:52:34.725Z,7.53
2019-05-03T14:55:31.478Z,6.60
2019-05-03T14:58:45.687Z,6.60
2019-05-03T15:02:01.223Z,6.13
2019-05-03T15:04:49.318Z,7.70
2019-05-03T15:07:37.042Z,6.83
2019-05-03T15:10:24.938Z,5.83
2019-05-03T15:13:13.359Z,6.73
2019-05-03T15:16:01.468Z,7.13
2019-05-03T15:18:49.212Z,6.80
2019-05-03T15:21:37.060Z,7.00
2019-05-03T15:24:25.299Z,7.23
2019-05-03T15:27:13.713Z,7.07
2019-05-03T15:30:01.558Z,5.87
2019-05-03T15:32:57.865Z,5.97
2019-05-03T15:35:39.407Z,6.73
2019-05-03T15:38:27.576Z,5.47
2019-05-03T15:41:17.434Z,4.27
2019-05-03T15:44:36.771Z,5.33
2019-05-03T15:47:28.974Z,4.20
2019-05-03T15:53:04.520Z,3.23
2019-05-03T15:55:52.237Z,2.90
2019-05-03T15:58:40.716Z,3.20
2019-05-03T16:01:29.192Z,3.30
2019-05-03T16:04:17.641Z,3.20
2019-05-03T16:07:06.018Z,4.97
2019-05-03T16:09:55.388Z,4.20
2019-05-03T16:12:44.951Z,3.70
2019-05-03T16:15:35.046Z,4.00
2019-05-03T16:18:24.349Z,3.80
2019-05-03T16:21:11.703Z,4.33
2019-05-03T16:23:59.460Z,4.10
2019-05-03T16:27:21.461Z,4.67
2019-05-03T16:30:27.451Z,4.60
2019-05-03T16:33:26.690Z,4.07
2019-05-03T16:36:05.602Z,4.00
2019-05-03T16:38:55.426Z,4.10
2019-05-03T16:41:44.707Z,4.60
2019-05-03T16:44:34.942Z,4.07
2019-05-03T16:47:24.824Z,5.90
2019-05-03T16:50:14.008Z,4.83
2019-05-03T16:53:01.215Z,5.93
2019-05-03T16:55:49.365Z,5.60
2019-05-03T16:58:36.967Z,7.60
2019-05-03T17:01:24.711Z,5.37
2019-05-03T17:04:34.586Z,5.37
2019-05-03T17:07:49.162Z,5.93
2019-05-03T17:10:40.683Z,8.27
2019-05-03T17:13:28.581Z,5.70
2019-05-03T17:16:17.124Z,8.07
2019-05-03T17:19:05.873Z,6.00
2019-05-03T17:21:54.802Z,7.43
2019-05-03T17:24:44.352Z,5.13
2019-05-03T17:27:35.658Z,4.93
2019-05-03T17:30:32.643Z,6.00
2019-05-03T17:33:13.196Z,5.17
2019-05-03T17:36:01.409Z,5.53
2019-05-03T17:38:50.983Z,5.13
2019-05-03T17:42:05.272Z,5.40
2019-05-03T17:44:54.579Z,5.37
2019-05-03T17:47:43.000Z,4.87
2019-05-03T17:50:31.145Z,5.00
2019-05-03T17:53:54.875Z,6.63
2019-05-03T17:57:01.866Z,7.40
2019-05-03T18:00:11.025Z,7.87
2019-05-03T18:03:04.764Z,6.43
2019-05-03T18:06:04.778Z,4.93
2019-05-03T18:09:11.800Z,4.33
2019-05-03T18:12:04.665Z,5.07
2019-05-03T18:14:52.977Z,7.47
2019-05-03T18:17:40.744Z,5.80
2019-05-03T18:20:28.873Z,4.53
2019-05-03T18:24:06.466Z,4.30
2019-05-03T18:28:02.487Z,4.33
2019-05-03T18:46:40.912Z,4.70
2019-05-03T18:57:20.963Z,4.90
2019-05-03T19:00:24.630Z,6.10
2019-05-03T19:03:15.720Z,4.10
2019-05-03T19:06:08.571Z,4.20
2019-05-03T19:09:14.568Z,4.67
2019-05-03T19:12:20.335Z,4.77
2019-05-03T19:15:09.264Z,4.70
2019-05-03T19:18:07.595Z,5.80
2019-05-03T19:20:55.468Z,5.00
2019-05-03T19:23:44.675Z,5.77
2019-05-03T19:26:32.886Z,7.57
2019-05-03T19:29:20.890Z,5.70
2019-05-03T19:33:31.709Z,5.80
2019-05-03T19:36:50.469Z,6.33
2019-05-03T19:39:38.935Z,5.73
2019-05-03T19:42:27.412Z,6.00
2019-05-03T19:45:15.636Z,6.00
2019-05-03T19:48:03.348Z,5.30
2019-05-03T19:50:51.328Z,5.17
2019-05-03T19:53:47.039Z,5.80
2019-05-03T19:56:50.464Z,5.90
2019-05-03T19:59:56.351Z,6.63
2019-05-03T20:06:22.395Z,5.90
2019-05-03T20:09:15.156Z,6.07
2019-05-03T20:12:04.767Z,6.10
2019-05-03T20:14:57.213Z,6.80
2019-05-03T20:17:56.495Z,6.70
2019-05-03T20:21:14.914Z,6.03
2019-05-03T20:24:07.893Z,6.33
2019-05-03T20:35:25.098Z,6.27
2019-05-03T20:38:29.807Z,6.20
2019-05-03T20:46:15.092Z,7.87
2019-05-03T20:49:20.369Z,6.60
2019-05-03T20:52:24.537Z,7.73
2019-05-03T20:55:25.567Z,6.93
2019-05-03T21:02:06.379Z,7.03
2019-05-03T21:09:54.755Z,7.63
2019-05-03T21:12:54.436Z,8.27
2019-05-03T21:16:12.207Z,7.30
2019-05-03T21:19:25.635Z,9.67
2019-05-03T21:22:39.922Z,7.30
2019-05-03T21:26:03.586Z,9.80
2019-05-03T21:31:44.526Z,8.07
2019-05-03T21:34:34.615Z,7.40
2019-05-03T21:37:45.269Z,9.00
2019-05-03T21:40:34.878Z,7.43
2019-05-03T21:43:28.438Z,8.80
2019-05-03T21:49:56.510Z,9.43
2019-05-03T21:52:57.667Z,8.77
2019-05-03T21:55:47.858Z,9.73
2019-05-03T21:58:37.019Z,7.90
2019-05-03T22:01:29.015Z,8.37
2019-05-03T22:04:18.333Z,8.53
2019-05-03T22:07:07.627Z,8.00
2019-05-03T22:09:57.584Z,8.67
2019-05-03T22:12:45.084Z,9.67
2019-05-03T22:15:50.952Z,9.37
2019-05-03T22:18:38.833Z,9.07
2019-05-03T22:21:45.275Z,9.20
2019-05-03T22:24:42.204Z,8.27
2019-05-03T22:27:36.541Z,8.50
2019-05-03T22:30:27.306Z,8.60
2019-05-03T22:33:15.499Z,8.13
2019-05-03T22:36:09.457Z,9.87
2019-05-03T22:39:00.739Z,9.77
2019-05-03T22:41:54.581Z,9.90
2019-05-03T22:44:44.716Z,13.43
2019-05-03T22:47:35.733Z,10.23
2019-05-03T22:50:25.375Z,12.03
2019-05-03T22:53:14.797Z,11.60
2019-05-03T22:56:07.364Z,11.80
2019-05-03T22:58:57.208Z,11.13
2019-05-03T23:01:45.767Z,11.43
2019-05-03T23:04:35.589Z,13.33
2019-05-03T23:07:27.856Z,13.73
2019-05-03T23:10:17.412Z,11.03
2019-05-03T23:13:05.757Z,11.57
2019-05-03T23:15:56.331Z,11.93
2019-05-03T23:18:44.510Z,12.27
2019-05-03T23:21:55.420Z,12.67
2019-05-03T23:24:43.375Z,14.20
2019-05-03T23:27:35.389Z,16.60
2019-05-03T23:30:24.775Z,14.30
2019-05-03T23:33:18.998Z,13.23
2019-05-03T23:36:07.207Z,11.47
2019-05-03T23:38:55.499Z,12.80
2019-05-03T23:41:45.231Z,12.87
2019-05-03T23:44:35.419Z,14.67
2019-05-03T23:47:34.646Z,12.30
2019-05-03T23:50:24.852Z,12.33
2019-05-03T23:53:20.296Z,12.97
2019-05-03T23:56:17.727Z,12.83
2019-05-03T23:59:10.706Z,11.57
